Time;durP1;ratioP1;P1;durP2;ratioP2;P2;SDS_P1;SDS_P2;PMS_P1;PMS_P2;Temp;Humidity;BMP_temperature;BMP_pressure;BME280_temperature;BME280_humidity;BME280_pressure;Samples;Min_cycle;Max_cycle;Signal;HPM_P1;HPM_P2
2022/05/01 00:01:33;;;;;;;29.47;19.87;;;10.20;99.90;;;;;;5068082;28;20468;-70
2022/05/01 00:03:59;;;;;;;30.13;19.90;;;10.20;99.90;;;;;;5069070;28;20256;-70
2022/05/01 00:06:24;;;;;;;43.17;22.00;;;10.20;99.90;;;;;;5068199;28;20222;-71
2022/05/01 00:08:50;;;;;;;33.70;21.83;;;10.20;99.90;;;;;;5063657;28;20257;-70
2022/05/01 00:11:16;;;;;;;36.30;22.63;;;10.20;99.90;;;;;;5067590;28;20559;-70
2022/05/01 00:13:43;;;;;;;34.83;21.70;;;10.20;99.90;;;;;;5067703;28;20206;-70
2022/05/01 00:16:09;;;;;;;30.60;20.23;;;10.20;99.90;;;;;;5067889;28;20203;-70
2022/05/01 00:18:35;;;;;;;32.93;20.90;;;10.30;99.90;;;;;;5066860;28;20434;-71
2022/05/01 00:21:01;;;;;;;37.13;21.67;;;10.20;99.90;;;;;;5067631;28;20644;-70
2022/05/01 00:23:26;;;;;;;30.17;19.40;;;10.30;99.90;;;;;;5067759;28;20698;-70
2022/05/01 00:25:52;;;;;;;29.10;19.93;;;10.30;99.90;;;;;;5061387;28;20252;-70
2022/05/01 00:28:18;;;;;;;34.57;21.27;;;10.30;99.90;;;;;;5068411;28;20188;-70
2022/05/01 00:30:43;;;;;;;31.90;20.20;;;10.30;99.90;;;;;;5067597;28;20173;-71
2022/05/01 00:38:38;;;;;;;30.90;19.77;;;10.90;99.90;;;;;;5068930;28;20798;-71
2022/05/01 00:41:07;;;;;;;36.23;21.10;;;10.40;99.90;;;;;;5063523;28;20439;-69
2022/05/01 00:43:33;;;;;;;32.77;20.93;;;10.40;99.90;;;;;;5066482;28;20874;-71
2022/05/01 00:45:59;;;;;;;30.90;20.90;;;10.40;99.90;;;;;;5064098;28;20839;-69
2022/05/01 00:48:24;;;;;;;31.10;20.20;;;10.40;99.90;;;;;;5064832;28;20446;-71
2022/05/01 00:50:52;;;;;;;33.43;20.67;;;10.40;99.90;;;;;;5065233;28;20180;-70
2022/05/01 00:53:18;;;;;;;32.23;20.20;;;10.30;99.90;;;;;;5066833;28;20592;-70
2022/05/01 00:55:44;;;;;;;32.23;19.13;;;10.30;99.90;;;;;;5067103;28;20505;-71
2022/05/01 00:58:09;;;;;;;29.60;19.60;;;10.30;99.90;;;;;;5060617;28;20252;-70
2022/05/01 01:00:35;;;;;;;26.50;19.07;;;10.30;99.90;;;;;;5067965;28;20974;-69
2022/05/01 01:03:01;;;;;;;29.93;19.17;;;10.30;99.90;;;;;;5068286;28;20187;-70
2022/05/01 01:05:27;;;;;;;36.87;19.97;;;10.30;99.90;;;;;;5067003;28;20204;-71
2022/05/01 01:07:53;;;;;;;32.20;19.20;;;10.30;99.90;;;;;;5065744;28;20264;-71
2022/05/01 01:10:19;;;;;;;32.67;19.70;;;10.30;99.90;;;;;;5067201;28;20610;-70
2022/05/01 01:12:54;;;;;;;30.90;20.80;;;10.30;99.90;;;;;;5066609;28;20215;-70
2022/05/01 01:15:24;;;;;;;32.33;19.67;;;10.30;99.90;;;;;;5065940;28;20481;-70
2022/05/01 01:17:54;;;;;;;32.13;20.00;;;10.20;99.90;;;;;;5063019;28;20466;-71
2022/05/01 01:20:29;;;;;;;27.03;20.07;;;10.20;99.90;;;;;;5060766;28;20510;-70
2022/05/01 01:23:00;;;;;;;30.13;20.10;;;10.20;99.90;;;;;;5065112;28;20539;-70
2022/05/01 01:25:29;;;;;;;32.53;19.83;;;10.20;99.90;;;;;;5061582;28;20450;-71
2022/05/01 01:27:59;;;;;;;30.10;19.80;;;10.20;99.90;;;;;;5067992;28;20423;-71
2022/05/01 01:33:10;;;;;;;29.37;19.27;;;10.30;99.90;;;;;;5067511;28;20457;-70
2022/05/01 01:35:38;;;;;;;29.87;19.60;;;10.30;99.90;;;;;;5066324;28;20446;-70
2022/05/01 01:38:04;;;;;;;29.43;19.50;;;10.30;99.90;;;;;;5066325;28;20589;-71
2022/05/01 01:40:57;;;;;;;28.73;20.70;;;10.40;99.90;;;;;;5065126;28;20478;-70
2022/05/01 01:43:28;;;;;;;32.30;19.90;;;10.20;99.90;;;;;;5066371;28;20445;-70
2022/05/01 01:45:55;;;;;;;40.77;21.57;;;10.10;99.90;;;;;;5065051;28;21306;-70
2022/05/01 01:48:23;;;;;;;33.70;20.90;;;10.10;99.90;;;;;;5065994;28;20589;-70
2022/05/01 01:50:57;;;;;;;34.40;20.43;;;10.20;99.90;;;;;;5063589;28;20412;-70
2022/05/01 01:53:23;;;;;;;32.27;20.03;;;10.20;99.90;;;;;;5066781;28;20781;-70
2022/05/01 01:55:49;;;;;;;31.83;20.00;;;10.10;99.90;;;;;;5065797;28;20421;-71
2022/05/01 01:58:14;;;;;;;34.30;21.80;;;10.10;99.90;;;;;;5065885;28;20515;-71
2022/05/01 02:00:40;;;;;;;35.47;21.40;;;10.10;99.90;;;;;;5066560;28;20192;-71
2022/05/01 02:03:06;;;;;;;34.87;22.00;;;10.10;99.90;;;;;;5066308;28;20176;-70
2022/05/01 02:05:33;;;;;;;31.83;19.27;;;10.10;99.90;;;;;;5067606;28;20192;-72
2022/05/01 02:08:00;;;;;;;37.13;21.77;;;10.20;99.90;;;;;;5066016;28;20176;-70
2022/05/01 02:10:26;;;;;;;30.23;20.00;;;10.10;99.90;;;;;;5065090;28;20500;-71
2022/05/01 02:12:52;;;;;;;35.30;20.90;;;9.80;99.90;;;;;;5066289;28;20932;-71
2022/05/01 02:15:18;;;;;;;33.43;20.17;;;10.10;99.90;;;;;;5065443;28;20686;-70
2022/05/01 02:17:45;;;;;;;31.80;21.30;;;10.10;99.90;;;;;;5063997;28;20458;-71
2022/05/01 02:20:11;;;;;;;29.40;19.90;;;10.10;99.90;;;;;;5067029;28;20207;-70
2022/05/01 02:22:40;;;;;;;34.27;20.97;;;10.10;99.90;;;;;;5065227;28;20912;-71
2022/05/01 02:25:07;;;;;;;33.37;21.00;;;10.10;99.90;;;;;;5065227;28;20634;-70
2022/05/01 02:27:33;;;;;;;29.30;19.50;;;10.10;99.90;;;;;;5061719;28;20524;-71
2022/05/01 02:29:59;;;;;;;30.07;19.37;;;10.10;99.90;;;;;;5066147;28;20562;-70
2022/05/01 02:32:24;;;;;;;29.87;19.20;;;10.00;99.90;;;;;;5063894;28;20885;-71
2022/05/01 02:34:50;;;;;;;32.63;19.97;;;10.00;99.90;;;;;;5067452;28;20192;-71
2022/05/01 02:37:16;;;;;;;31.10;20.67;;;9.90;99.90;;;;;;5068210;28;20572;-70
2022/05/01 02:39:41;;;;;;;28.93;19.10;;;9.90;99.90;;;;;;5065689;28;20675;-70
2022/05/01 02:42:07;;;;;;;32.03;20.77;;;9.90;99.90;;;;;;5065512;28;20217;-71
2022/05/01 02:44:33;;;;;;;29.93;19.20;;;9.90;99.90;;;;;;5066326;28;20334;-71
2022/05/01 02:46:59;;;;;;;28.00;19.53;;;10.00;99.90;;;;;;5068621;28;21290;-70
2022/05/01 02:49:24;;;;;;;30.53;18.80;;;10.00;99.90;;;;;;5071035;28;20255;-71
2022/05/01 02:51:52;;;;;;;36.93;21.17;;;10.00;99.90;;;;;;5069363;28;20184;-71
2022/05/01 02:54:18;;;;;;;32.70;20.27;;;10.10;99.90;;;;;;5070664;28;20218;-71
2022/05/01 02:56:44;;;;;;;29.10;20.00;;;10.10;99.90;;;;;;5067419;28;20463;-71
2022/05/01 02:59:09;;;;;;;26.50;18.13;;;10.10;99.90;;;;;;5070528;28;20669;-71
2022/05/01 03:01:36;;;;;;;28.47;19.57;;;10.10;99.90;;;;;;5067940;28;20188;-70
2022/05/01 03:04:02;;;;;;;30.20;20.57;;;10.20;99.90;;;;;;5070573;28;20196;-70
2022/05/01 03:06:28;;;;;;;30.83;18.80;;;10.20;99.90;;;;;;5069468;28;20458;-70
2022/05/01 03:08:54;;;;;;;33.10;19.70;;;10.10;99.90;;;;;;5070587;28;20450;-71
2022/05/01 03:11:19;;;;;;;39.87;20.80;;;10.10;99.90;;;;;;5067574;28;20184;-71
2022/05/01 03:13:45;;;;;;;35.03;20.90;;;10.10;99.90;;;;;;5068284;28;20274;-70
2022/05/01 03:16:10;;;;;;;32.13;21.27;;;10.00;99.90;;;;;;5062984;28;20208;-70
2022/05/01 03:24:04;;;;;;;28.43;19.80;;;10.10;99.90;;;;;;5062689;28;20532;-71
2022/05/01 03:26:30;;;;;;;28.83;19.50;;;10.00;99.90;;;;;;5069206;28;21011;-70
2022/05/01 03:28:55;;;;;;;34.63;21.50;;;10.10;99.90;;;;;;5069689;28;20687;-70
2022/05/01 03:31:21;;;;;;;35.30;20.47;;;10.10;99.90;;;;;;5068395;28;20644;-70
2022/05/01 03:33:47;;;;;;;27.80;19.63;;;10.10;99.90;;;;;;5069691;28;20672;-70
2022/05/01 03:36:14;;;;;;;26.90;19.67;;;10.10;99.90;;;;;;5067819;28;20720;-71
2022/05/01 03:38:42;;;;;;;26.53;19.40;;;10.10;99.90;;;;;;5069374;28;20714;-70
2022/05/01 03:41:09;;;;;;;30.77;19.00;;;10.10;99.90;;;;;;5068409;28;20525;-70
2022/05/01 03:43:35;;;;;;;28.30;19.40;;;10.10;99.90;;;;;;5069129;28;20514;-70
2022/05/01 03:46:04;;;;;;;31.27;19.57;;;10.10;99.90;;;;;;5053567;28;20776;-70
2022/05/01 03:48:29;;;;;;;28.90;20.00;;;10.10;99.90;;;;;;5064275;28;20435;-70
2022/05/01 03:50:55;;;;;;;29.97;20.43;;;10.30;99.90;;;;;;5068515;28;20425;-70
2022/05/01 03:53:22;;;;;;;29.33;20.10;;;10.10;99.90;;;;;;5068479;28;20298;-71
2022/05/01 03:55:47;;;;;;;26.13;19.87;;;10.20;99.90;;;;;;5067880;28;20177;-70
2022/05/01 03:58:13;;;;;;;33.50;20.10;;;10.10;99.90;;;;;;5067403;28;20429;-70
2022/05/01 04:00:39;;;;;;;28.30;19.30;;;10.10;99.90;;;;;;5067351;28;20181;-69
2022/05/01 04:03:05;;;;;;;29.63;19.80;;;10.00;99.90;;;;;;5067086;28;20183;-70
2022/05/01 04:05:32;;;;;;;34.70;19.50;;;10.00;99.90;;;;;;5068865;28;20426;-71
2022/05/01 04:07:58;;;;;;;33.60;18.50;;;10.00;99.90;;;;;;5067983;28;20180;-70
2022/05/01 04:10:24;;;;;;;30.80;19.07;;;10.00;99.90;;;;;;5068851;28;20982;-71
2022/05/01 04:12:50;;;;;;;29.90;18.60;;;10.00;99.90;;;;;;5066757;28;20702;-71
2022/05/01 04:15:16;;;;;;;30.93;19.27;;;10.00;99.90;;;;;;5068790;28;20235;-70
2022/05/01 04:17:42;;;;;;;28.97;20.20;;;10.10;99.90;;;;;;5065992;28;20200;-71
2022/05/01 04:20:16;;;;;;;28.53;18.27;;;10.10;99.90;;;;;;5069177;28;20438;-70
2022/05/01 04:22:46;;;;;;;28.20;18.63;;;10.10;99.90;;;;;;5067345;28;20438;-71
2022/05/01 04:25:17;;;;;;;28.30;19.03;;;10.20;99.90;;;;;;5068639;28;20435;-70
2022/05/01 04:27:44;;;;;;;28.87;18.07;;;10.30;99.90;;;;;;5066251;28;20434;-70
2022/05/01 04:30:12;;;;;;;26.93;18.77;;;10.20;99.90;;;;;;5068677;28;20462;-70
2022/05/01 04:32:55;;;;;;;25.30;17.63;;;10.30;99.90;;;;;;5067610;28;20787;-70
2022/05/01 04:35:22;;;;;;;29.17;18.47;;;10.30;99.90;;;;;;5062895;28;20446;-70
2022/05/01 04:37:48;;;;;;;27.17;18.30;;;10.30;99.90;;;;;;5066859;28;20550;-71
2022/05/01 04:40:14;;;;;;;26.47;17.93;;;10.30;99.90;;;;;;5067808;28;20905;-71
2022/05/01 04:42:41;;;;;;;29.37;18.70;;;10.20;99.90;;;;;;5067030;28;20446;-71
2022/05/01 04:45:08;;;;;;;32.23;17.93;;;10.20;99.90;;;;;;5068596;28;20295;-71
2022/05/01 04:47:33;;;;;;;28.20;18.43;;;10.10;99.90;;;;;;5066297;28;20446;-70
2022/05/01 04:49:59;;;;;;;27.57;18.97;;;10.30;99.90;;;;;;5067133;28;20425;-70
2022/05/01 04:52:24;;;;;;;26.73;18.60;;;10.40;99.90;;;;;;5067267;28;20185;-70
2022/05/01 04:54:50;;;;;;;29.67;18.53;;;10.50;99.90;;;;;;5067812;28;20208;-70
2022/05/01 04:57:15;;;;;;;25.60;18.37;;;10.50;99.90;;;;;;5065406;28;20208;-70
2022/05/01 04:59:41;;;;;;;26.20;18.00;;;10.50;99.90;;;;;;5067458;28;20180;-71
2022/05/01 05:02:07;;;;;;;23.43;17.23;;;10.50;99.90;;;;;;5066686;28;20173;-70
2022/05/01 05:04:32;;;;;;;27.43;18.97;;;10.50;99.90;;;;;;5068379;28;20200;-70
2022/05/01 05:06:58;;;;;;;25.73;18.77;;;10.50;99.90;;;;;;5066062;28;20184;-71
2022/05/01 05:12:09;;;;;;;27.20;17.30;;;10.50;99.90;;;;;;5064606;28;20183;-70
2022/05/01 05:14:35;;;;;;;29.60;18.07;;;10.70;99.90;;;;;;5063029;28;20435;-71
2022/05/01 05:17:01;;;;;;;28.57;19.30;;;10.70;99.90;;;;;;5058153;28;20549;-71
2022/05/01 05:19:27;;;;;;;26.47;18.33;;;10.80;99.90;;;;;;5067775;28;20933;-70
2022/05/01 05:21:53;;;;;;;24.73;18.20;;;10.90;99.90;;;;;;5065670;28;20489;-71
2022/05/01 05:24:19;;;;;;;23.50;17.90;;;10.90;99.90;;;;;;5063362;28;20212;-70
2022/05/01 05:26:45;;;;;;;28.90;17.70;;;10.80;99.90;;;;;;5067356;28;20176;-70
2022/05/01 05:29:10;;;;;;;25.87;17.63;;;10.90;99.90;;;;;;5066138;28;20447;-70
2022/05/01 05:31:36;;;;;;;23.03;17.40;;;10.80;99.90;;;;;;5067083;28;20199;-70
2022/05/01 05:34:01;;;;;;;24.30;17.23;;;10.90;99.90;;;;;;5067165;28;20298;-71
2022/05/01 05:36:27;;;;;;;24.83;16.90;;;11.20;99.90;;;;;;5066369;28;20272;-71
2022/05/01 05:38:53;;;;;;;26.07;17.90;;;11.10;99.90;;;;;;5065912;28;20204;-70
2022/05/01 05:41:19;;;;;;;25.53;17.93;;;11.30;99.90;;;;;;5064658;28;20516;-71
2022/05/01 05:43:45;;;;;;;23.53;17.57;;;11.20;99.90;;;;;;5064907;28;20279;-69
2022/05/01 05:46:10;;;;;;;31.00;18.53;;;11.30;99.90;;;;;;5066550;28;20246;-70
2022/05/01 05:48:37;;;;;;;23.17;17.57;;;11.40;99.90;;;;;;5066500;28;20185;-70
2022/05/01 05:51:04;;;;;;;22.43;17.50;;;11.40;99.90;;;;;;5066218;28;20184;-70
2022/05/01 05:53:30;;;;;;;24.30;17.30;;;11.30;99.90;;;;;;5067202;28;20442;-70
2022/05/01 05:55:55;;;;;;;23.03;16.80;;;11.30;99.90;;;;;;5058343;28;20509;-70
2022/05/01 05:58:21;;;;;;;27.53;17.67;;;11.30;99.90;;;;;;5064698;28;20579;-70
2022/05/01 06:00:46;;;;;;;25.10;17.97;;;11.30;99.90;;;;;;5064976;28;20560;-70
2022/05/01 06:03:12;;;;;;;25.53;16.90;;;11.30;99.90;;;;;;5066758;28;20185;-71
2022/05/01 06:05:37;;;;;;;30.93;16.80;;;11.30;99.90;;;;;;5063262;28;20318;-70
2022/05/01 06:08:03;;;;;;;25.83;17.27;;;11.30;99.90;;;;;;5066462;28;20192;-71
2022/05/01 06:10:29;;;;;;;28.80;18.40;;;11.30;99.90;;;;;;5065784;28;20242;-70
2022/05/01 06:12:54;;;;;;;21.67;16.50;;;11.30;99.90;;;;;;5066356;28;20208;-70
2022/05/01 06:15:20;;;;;;;22.40;16.37;;;11.90;99.90;;;;;;5064692;28;20290;-70
2022/05/01 06:17:45;;;;;;;21.33;16.30;;;11.50;99.90;;;;;;5064875;28;20204;-70
2022/05/01 06:20:11;;;;;;;20.47;15.97;;;11.70;99.90;;;;;;5066341;28;20658;-70
2022/05/01 06:22:37;;;;;;;22.67;16.70;;;11.80;99.90;;;;;;5061015;28;20571;-69
2022/05/01 06:25:03;;;;;;;23.30;16.70;;;11.80;99.90;;;;;;5065036;28;20243;-70
2022/05/01 06:27:28;;;;;;;27.87;16.80;;;11.80;99.90;;;;;;5067374;28;20215;-71
2022/05/01 06:29:54;;;;;;;25.93;17.70;;;11.90;99.90;;;;;;5060970;28;21082;-69
2022/05/01 06:32:19;;;;;;;22.20;16.40;;;12.00;99.90;;;;;;5066052;28;20231;-70
2022/05/01 06:34:46;;;;;;;25.30;17.20;;;12.10;99.90;;;;;;5064826;28;20676;-69
2022/05/01 06:37:13;;;;;;;27.40;17.43;;;12.30;99.90;;;;;;5066169;28;20204;-69
2022/05/01 06:39:39;;;;;;;24.17;16.43;;;12.40;99.90;;;;;;5068677;28;20446;-70
2022/05/01 06:42:05;;;;;;;21.50;16.27;;;12.40;99.90;;;;;;5053062;28;20508;-70
2022/05/01 06:44:31;;;;;;;22.60;15.90;;;12.50;99.90;;;;;;5081266;28;20192;-70
2022/05/01 06:46:56;;;;;;;24.40;15.90;;;12.70;99.90;;;;;;5067112;28;20502;-70
2022/05/01 06:49:22;;;;;;;26.77;16.80;;;12.80;99.90;;;;;;5066645;28;20200;-70
2022/05/01 06:51:48;;;;;;;22.83;15.17;;;12.80;99.90;;;;;;5066418;28;20279;-70
2022/05/01 06:54:13;;;;;;;25.70;15.93;;;13.00;99.90;;;;;;5062006;28;20236;-70
2022/05/01 06:56:41;;;;;;;21.00;16.50;;;13.10;99.90;;;;;;5064214;28;20248;-71
2022/05/01 06:59:07;;;;;;;20.43;15.87;;;13.20;99.90;;;;;;5062929;28;20658;-70
2022/05/01 07:01:32;;;;;;;27.23;15.00;;;13.30;99.90;;;;;;5064586;28;20430;-70
2022/05/01 07:03:58;;;;;;;20.97;14.87;;;13.30;99.90;;;;;;5064282;28;20566;-71
2022/05/01 07:06:24;;;;;;;22.63;15.77;;;13.50;99.90;;;;;;5063216;28;20185;-71
2022/05/01 07:08:49;;;;;;;21.73;16.90;;;13.70;99.90;;;;;;5067466;28;20176;-71
2022/05/01 07:11:15;;;;;;;21.57;15.50;;;13.70;99.90;;;;;;5065491;28;20255;-71
2022/05/01 07:13:40;;;;;;;26.57;15.20;;;13.80;99.90;;;;;;5066537;28;20548;-71
2022/05/01 07:16:06;;;;;;;20.27;16.27;;;13.90;99.90;;;;;;5065296;28;20180;-71
2022/05/01 07:18:32;;;;;;;20.90;16.67;;;14.10;99.90;;;;;;5064448;28;20168;-70
2022/05/01 07:20:59;;;;;;;22.23;15.47;;;14.40;99.90;;;;;;5065998;28;20180;-71
2022/05/01 07:23:25;;;;;;;19.93;15.03;;;14.70;99.90;;;;;;5069167;28;20179;-70
2022/05/01 07:25:51;;;;;;;20.70;15.20;;;14.90;99.90;;;;;;5068281;28;20498;-71
2022/05/01 07:28:16;;;;;;;18.50;13.80;;;15.10;99.90;;;;;;5067123;28;20537;-70
2022/05/01 07:30:42;;;;;;;19.30;15.17;;;15.30;99.90;;;;;;5070232;28;20616;-71
2022/05/01 07:33:07;;;;;;;19.33;15.13;;;15.30;99.90;;;;;;5068153;28;20569;-71
2022/05/01 07:35:33;;;;;;;21.80;16.80;;;15.20;99.90;;;;;;5068108;28;20203;-72
2022/05/01 07:37:58;;;;;;;19.43;15.60;;;15.20;99.90;;;;;;5068007;28;20207;-71
2022/05/01 07:40:24;;;;;;;21.27;15.67;;;15.30;99.90;;;;;;5068321;28;20180;-69
2022/05/01 07:42:51;;;;;;;26.50;15.60;;;15.30;99.90;;;;;;5069976;28;20181;-71
2022/05/01 07:45:17;;;;;;;20.30;15.73;;;15.30;99.90;;;;;;5053000;28;20196;-72
2022/05/01 07:47:42;;;;;;;18.37;14.90;;;15.50;99.90;;;;;;5069579;28;20433;-71
2022/05/01 07:50:08;;;;;;;17.83;15.00;;;15.70;99.90;;;;;;5069145;28;20186;-72
2022/05/01 07:52:34;;;;;;;23.93;16.93;;;16.00;99.90;;;;;;5068673;28;20314;-71
2022/05/01 07:55:01;;;;;;;19.87;16.30;;;16.30;99.90;;;;;;5068566;28;20447;-71
2022/05/01 07:57:27;;;;;;;19.80;15.53;;;16.20;99.90;;;;;;5070206;28;20461;-72
2022/05/01 07:59:54;;;;;;;20.63;16.73;;;15.80;99.90;;;;;;5069861;28;20426;-70
2022/05/01 08:02:20;;;;;;;23.00;17.00;;;15.40;99.90;;;;;;5063049;28;20176;-71
2022/05/01 08:04:46;;;;;;;20.50;17.00;;;15.20;99.90;;;;;;5067634;28;20431;-71
2022/05/01 08:07:12;;;;;;;28.00;21.37;;;14.90;99.90;;;;;;5068972;28;20442;-71
2022/05/01 08:09:37;;;;;;;21.53;16.33;;;15.00;99.90;;;;;;5068792;28;20181;-72
2022/05/01 08:12:04;;;;;;;27.47;19.43;;;15.10;99.90;;;;;;5069754;28;20449;-72
2022/05/01 08:14:29;;;;;;;21.10;16.60;;;15.40;99.90;;;;;;5067823;28;20196;-72
2022/05/01 08:16:55;;;;;;;21.30;16.93;;;15.50;99.90;;;;;;5069025;28;20917;-72
2022/05/01 08:22:06;;;;;;;24.73;17.13;;;15.30;99.90;;;;;;5069593;28;20565;-72
2022/05/01 08:24:32;;;;;;;22.10;17.50;;;14.90;99.90;;;;;;5069818;28;20529;-71
2022/05/01 08:27:04;;;;;;;22.37;16.70;;;14.80;99.90;;;;;;5067799;28;20227;-72
2022/05/01 08:29:31;;;;;;;26.37;17.40;;;14.90;99.90;;;;;;5067818;28;20426;-72
2022/05/01 08:31:56;;;;;;;29.77;21.10;;;15.10;99.90;;;;;;5059670;28;20422;-71
2022/05/01 08:34:22;;;;;;;34.90;26.50;;;15.20;99.90;;;;;;5059039;28;20462;-71
2022/05/01 08:36:47;;;;;;;25.03;19.07;;;15.20;99.90;;;;;;5069284;28;20346;-72
2022/05/01 08:39:13;;;;;;;23.57;17.93;;;15.00;99.90;;;;;;5067773;28;20641;-71
2022/05/01 08:41:39;;;;;;;24.50;17.37;;;14.80;99.90;;;;;;5066728;28;20701;-71
2022/05/01 08:44:05;;;;;;;24.80;17.33;;;14.90;99.90;;;;;;5066855;28;20196;-72
2022/05/01 08:46:31;;;;;;;21.37;15.97;;;15.10;99.90;;;;;;5068452;28;20177;-71
2022/05/01 08:49:09;;;;;;;22.00;16.93;;;15.50;99.90;;;;;;5069442;28;20423;-71
2022/05/01 08:51:37;;;;;;;25.27;17.30;;;15.90;99.90;;;;;;5067493;28;20374;-72
2022/05/01 08:54:05;;;;;;;22.97;17.53;;;16.20;99.90;;;;;;5069157;28;20454;-71
2022/05/01 08:56:33;;;;;;;22.30;17.47;;;16.50;99.90;;;;;;5068199;28;20551;-71
2022/05/01 08:59:07;;;;;;;22.77;17.20;;;16.40;99.90;;;;;;5066849;28;20509;-71
2022/05/01 09:01:33;;;;;;;23.23;18.50;;;16.50;99.90;;;;;;5066899;28;20522;-71
2022/05/01 09:04:03;;;;;;;21.70;17.20;;;16.50;99.90;;;;;;5067421;28;20439;-72
2022/05/01 09:06:29;;;;;;;23.17;17.93;;;16.50;99.90;;;;;;5068980;28;20532;-71
2022/05/01 09:08:56;;;;;;;25.60;19.77;;;16.90;99.90;;;;;;5068833;28;20919;-72
2022/05/01 09:14:06;;;;;;;23.67;18.27;;;17.20;99.90;;;;;;5061890;28;20546;-71
2022/05/01 09:16:37;;;;;;;27.17;19.27;;;17.30;99.90;;;;;;5066856;28;20875;-72
2022/05/01 09:19:03;;;;;;;23.17;19.70;;;17.30;99.90;;;;;;5067187;28;20180;-72
2022/05/01 09:21:49;;;;;;;21.60;19.10;;;17.40;99.90;;;;;;5067812;28;20869;-71
2022/05/01 09:24:25;;;;;;;27.53;19.97;;;17.20;99.90;;;;;;5068589;28;20521;-71
2022/05/01 09:26:51;;;;;;;25.20;20.40;;;17.20;99.90;;;;;;5067977;28;20422;-71
2022/05/01 09:29:22;;;;;;;25.70;19.60;;;17.50;99.90;;;;;;5068009;28;20929;-71
2022/05/01 09:31:48;;;;;;;22.40;19.17;;;18.00;99.90;;;;;;5065335;28;20932;-72
2022/05/01 09:34:29;;;;;;;24.00;20.67;;;18.60;99.90;;;;;;5061588;28;21078;-72
2022/05/01 09:36:57;;;;;;;30.53;20.90;;;19.00;99.90;;;;;;5067971;28;20462;-71
2022/05/01 09:39:25;;;;;;;29.80;22.30;;;19.40;99.90;;;;;;5068386;28;20476;-71
2022/05/01 09:41:52;;;;;;;26.70;21.67;;;19.50;99.90;;;;;;5065634;28;20534;-72
2022/05/01 09:44:22;;;;;;;25.47;20.40;;;19.60;99.90;;;;;;5066285;28;20450;-72
2022/05/01 09:46:50;;;;;;;26.10;21.17;;;20.00;99.90;;;;;;5067379;28;21026;-71
2022/05/01 09:49:18;;;;;;;25.00;19.20;;;20.70;99.90;;;;;;5065934;28;20431;-73
2022/05/01 09:51:54;;;;;;;23.43;19.33;;;21.30;99.90;;;;;;5066284;28;20523;-73
2022/05/01 09:54:22;;;;;;;23.10;18.80;;;21.70;99.90;;;;;;5068271;28;20434;-73
2022/05/01 09:56:57;;;;;;;24.03;20.30;;;22.00;99.90;;;;;;5066273;28;20986;-73
2022/05/01 09:59:24;;;;;;;22.80;19.70;;;21.80;99.90;;;;;;5067670;28;20410;-73
2022/05/01 10:01:57;;;;;;;24.40;21.10;;;21.60;99.90;;;;;;5065785;28;20426;-72
2022/05/01 10:04:23;;;;;;;22.73;19.43;;;21.20;99.90;;;;;;5066550;28;20438;-72
2022/05/01 10:06:54;;;;;;;24.43;19.73;;;20.50;99.90;;;;;;5067890;28;20416;-71
2022/05/01 10:09:24;;;;;;;23.33;19.50;;;20.20;99.90;;;;;;5064755;28;20527;-72
2022/05/01 10:11:54;;;;;;;25.47;20.90;;;20.20;99.90;;;;;;5065355;28;20781;-72
2022/05/01 10:14:23;;;;;;;23.83;19.73;;;19.70;99.90;;;;;;5066190;28;20459;-72
2022/05/01 10:16:50;;;;;;;26.87;21.13;;;19.60;99.90;;;;;;5066098;28;20489;-71
2022/05/01 10:19:17;;;;;;;25.27;20.00;;;19.60;99.90;;;;;;5077084;28;20450;-71
2022/05/01 10:21:46;;;;;;;23.93;20.20;;;19.60;99.90;;;;;;5062469;28;20813;-71
2022/05/01 10:24:12;;;;;;;23.23;19.77;;;19.20;99.90;;;;;;5064589;28;20517;-71
2022/05/01 10:26:46;;;;;;;26.40;19.73;;;19.00;99.90;;;;;;5065870;28;20770;-71
2022/05/01 10:29:31;;;;;;;23.53;20.23;;;18.90;99.90;;;;;;5066821;28;20184;-71
2022/05/01 10:32:21;;;;;;;24.13;18.30;;;18.80;99.90;;;;;;5051394;28;20519;-71
2022/05/01 10:35:26;;;;;;;23.87;20.40;;;19.00;99.90;;;;;;5064107;28;20473;-71
2022/05/01 10:38:09;;;;;;;21.70;18.93;;;18.90;99.90;;;;;;5061654;28;20497;-71
2022/05/01 10:40:53;;;;;;;25.60;19.37;;;19.00;99.90;;;;;;5061576;28;20433;-70
2022/05/01 10:43:22;;;;;;;24.27;18.20;;;19.10;99.90;;;;;;5066095;28;20427;-71
2022/05/01 10:45:48;;;;;;;21.40;18.50;;;19.30;99.90;;;;;;5063767;28;20935;-71
2022/05/01 10:48:17;;;;;;;24.43;18.70;;;19.40;99.90;;;;;;5066242;28;20521;-71
2022/05/01 10:50:43;;;;;;;22.07;17.80;;;19.20;99.90;;;;;;5066156;28;20227;-71
2022/05/01 10:53:12;;;;;;;19.27;16.70;;;19.00;99.90;;;;;;5055616;28;20441;-70
2022/05/01 10:56:22;;;;;;;20.33;17.13;;;18.80;99.90;;;;;;5064648;28;20200;-71
2022/05/01 10:58:47;;;;;;;22.93;18.30;;;18.60;99.90;;;;;;5066251;28;20489;-72
2022/05/01 11:01:13;;;;;;;24.57;19.23;;;18.30;99.90;;;;;;5070468;28;20450;-71
2022/05/01 11:03:51;;;;;;;24.83;21.00;;;18.10;99.90;;;;;;5069790;28;20647;-71
2022/05/01 11:06:21;;;;;;;26.50;20.63;;;18.10;99.90;;;;;;5069616;28;20180;-71
2022/05/01 11:08:47;;;;;;;24.87;20.50;;;18.30;99.90;;;;;;5068854;28;20950;-72
2022/05/01 11:11:13;;;;;;;27.73;20.63;;;18.40;99.90;;;;;;5068801;28;20507;-72
2022/05/01 11:13:40;;;;;;;25.50;20.20;;;18.50;99.90;;;;;;5067520;28;20901;-71
2022/05/01 11:16:10;;;;;;;23.43;19.20;;;18.50;99.90;;;;;;5068482;28;20172;-72
2022/05/01 11:18:41;;;;;;;22.20;19.20;;;18.50;99.90;;;;;;5069307;28;20433;-71
2022/05/01 11:21:22;;;;;;;23.60;19.93;;;18.50;99.90;;;;;;5070375;28;20402;-71
2022/05/01 11:24:10;;;;;;;22.70;19.23;;;18.30;99.90;;;;;;5069147;28;20453;-71
2022/05/01 11:26:36;;;;;;;24.23;19.33;;;18.20;99.90;;;;;;5068541;28;20521;-71
2022/05/01 11:29:10;;;;;;;24.77;19.80;;;18.10;99.90;;;;;;5069079;28;20435;-71
2022/05/01 11:31:35;;;;;;;24.23;20.07;;;18.00;99.90;;;;;;5067778;28;20414;-70
2022/05/01 11:34:16;;;;;;;25.57;19.80;;;17.90;99.90;;;;;;5068125;28;20481;-71
2022/05/01 11:37:05;;;;;;;23.80;19.60;;;18.00;99.90;;;;;;5069661;28;20200;-72
2022/05/01 11:39:45;;;;;;;18.70;16.70;;;18.00;99.90;;;;;;5068537;28;20743;-72
2022/05/01 11:42:26;;;;;;;24.23;18.43;;;17.90;99.90;;;;;;5069663;28;20479;-73
2022/05/01 11:44:54;;;;;;;21.80;17.77;;;18.00;99.90;;;;;;5067224;28;20447;-72
2022/05/01 11:47:21;;;;;;;22.77;18.23;;;18.20;99.90;;;;;;5066980;28;21237;-72
2022/05/01 11:49:46;;;;;;;22.93;17.90;;;18.50;99.90;;;;;;5068230;28;20571;-71
2022/05/01 11:52:16;;;;;;;22.20;17.30;;;18.60;99.90;;;;;;5068160;28;20530;-71
2022/05/01 11:54:50;;;;;;;20.67;17.27;;;18.60;99.90;;;;;;5069333;28;20200;-71
2022/05/01 12:03:03;;;;;;;22.90;18.97;;;18.90;99.90;;;;;;5066332;28;20417;-72
2022/05/01 12:05:43;;;;;;;20.30;17.53;;;18.80;99.90;;;;;;5066892;28;20438;-71
2022/05/01 12:08:09;;;;;;;20.00;15.90;;;18.80;99.90;;;;;;5062049;28;20427;-71
2022/05/01 12:10:43;;;;;;;24.20;18.00;;;18.80;99.90;;;;;;5066889;28;20503;-71
2022/05/01 12:13:18;;;;;;;19.77;17.07;;;18.60;99.90;;;;;;5068880;28;20180;-70
2022/05/01 12:15:45;;;;;;;18.93;15.87;;;18.50;99.90;;;;;;5067599;28;21458;-72
2022/05/01 12:18:10;;;;;;;21.23;16.77;;;18.30;99.90;;;;;;5066848;28;20595;-70
2022/05/01 12:20:36;;;;;;;20.60;16.17;;;18.20;99.90;;;;;;5066366;28;20427;-71
2022/05/01 12:23:01;;;;;;;23.13;17.93;;;18.20;99.90;;;;;;5068668;28;20181;-71
2022/05/01 12:25:27;;;;;;;20.37;16.53;;;18.20;99.90;;;;;;5067955;28;20227;-71
2022/05/01 12:27:53;;;;;;;24.37;16.03;;;18.30;99.90;;;;;;5068446;28;20267;-71
2022/05/01 12:30:22;;;;;;;20.50;16.10;;;18.20;99.90;;;;;;5067681;28;20188;-71
2022/05/01 12:32:54;;;;;;;19.57;16.50;;;18.10;99.90;;;;;;5067006;28;21063;-71
2022/05/01 12:35:21;;;;;;;20.33;17.23;;;18.10;99.90;;;;;;5066600;28;20458;-71
2022/05/01 12:37:48;;;;;;;17.63;15.63;;;18.10;99.90;;;;;;5067983;28;20537;-72
2022/05/01 12:43:50;;;;;;;21.87;18.00;;;18.30;99.90;;;;;;5066228;28;20421;-70
2022/05/01 12:45:53;;;;;;;19.80;16.33;;;18.30;99.90;;;;;;5060529;28;20449;-71
2022/05/01 12:48:19;;;;;;;22.70;17.20;;;18.30;99.90;;;;;;5066458;28;20467;-71
2022/05/01 12:50:50;;;;;;;22.67;17.80;;;18.30;99.90;;;;;;5067668;28;20529;-71
2022/05/01 12:53:29;;;;;;;23.57;18.70;;;18.40;99.90;;;;;;5067879;28;20414;-71
2022/05/01 12:55:57;;;;;;;24.93;18.97;;;18.10;99.90;;;;;;5063009;28;20442;-71
2022/05/01 12:58:30;;;;;;;22.10;18.10;;;17.90;99.90;;;;;;5066812;28;20909;-71
2022/05/01 13:00:56;;;;;;;26.40;18.30;;;17.80;99.90;;;;;;5058898;28;20418;-71
2022/05/01 13:03:28;;;;;;;23.17;18.60;;;17.80;99.90;;;;;;5068321;28;20498;-71